createdAt,value
2019-02-15T00:00:54.812Z,9.10
2019-02-15T00:03:22.081Z,6.07
2019-02-15T00:05:49.354Z,5.73
2019-02-15T00:08:16.597Z,4.80
2019-02-15T00:10:43.952Z,4.20
2019-02-15T00:13:13.562Z,5.60
2019-02-15T00:15:40.255Z,4.07
2019-02-15T00:18:09.166Z,4.50
2019-02-15T00:20:43.779Z,5.27
2019-02-15T00:23:11.055Z,4.50
2019-02-15T00:25:38.327Z,3.43
2019-02-15T00:28:05.567Z,3.57
2019-02-15T00:30:32.839Z,3.40
2019-02-15T00:33:00.367Z,6.13
2019-02-15T00:35:27.857Z,4.43
2019-02-15T00:37:55.210Z,6.87
2019-02-15T00:40:22.455Z,3.53
2019-02-15T00:42:49.726Z,3.47
2019-02-15T00:45:18.889Z,3.80
2019-02-15T00:47:51.049Z,2.77
2019-02-15T00:50:22.907Z,2.53
2019-02-15T00:52:51.824Z,2.50
2019-02-15T00:55:20.707Z,3.67
2019-02-15T00:57:49.611Z,2.83
2019-02-15T01:00:18.497Z,4.20
2019-02-15T01:02:50.074Z,2.70
2019-02-15T01:05:18.959Z,3.10
2019-02-15T01:07:48.160Z,3.63
2019-02-15T01:10:20.099Z,3.63
2019-02-15T01:12:52.159Z,5.27
2019-02-15T01:15:19.421Z,3.57
2019-02-15T01:17:46.670Z,4.37
2019-02-15T01:20:13.938Z,3.43
2019-02-15T01:22:41.434Z,2.70
2019-02-15T01:25:08.675Z,3.93
2019-02-15T01:27:52.659Z,5.77
2019-02-15T01:30:24.850Z,5.57
2019-02-15T01:32:53.906Z,2.60
2019-02-15T01:35:28.228Z,4.50
2019-02-15T01:37:59.780Z,3.90
2019-02-15T01:40:34.518Z,4.33
2019-02-15T01:43:03.399Z,2.97
2019-02-15T01:45:35.260Z,3.93
2019-02-15T01:48:02.528Z,3.60
2019-02-15T01:50:29.851Z,3.00
2019-02-15T01:52:57.163Z,4.53
2019-02-15T01:55:24.441Z,3.60
2019-02-15T01:57:51.785Z,5.20
2019-02-15T02:00:20.005Z,3.60
2019-02-15T02:02:47.271Z,4.50
2019-02-15T02:05:14.541Z,3.47
2019-02-15T02:07:41.812Z,3.27
2019-02-15T02:10:09.553Z,3.97
2019-02-15T02:12:36.796Z,3.70
2019-02-15T02:15:05.508Z,5.73
2019-02-15T02:17:32.750Z,4.90
2019-02-15T02:20:00.302Z,6.00
2019-02-15T02:22:27.624Z,3.77
2019-02-15T02:24:54.869Z,5.10
2019-02-15T02:27:22.143Z,6.83
2019-02-15T02:29:49.396Z,6.27
2019-02-15T02:32:16.659Z,5.97
2019-02-15T02:34:43.909Z,4.93
2019-02-15T02:37:11.181Z,5.90
2019-02-15T02:39:38.525Z,6.10
2019-02-15T02:42:05.812Z,4.50
2019-02-15T02:44:33.373Z,5.80
2019-02-15T02:47:01.423Z,4.30
2019-02-15T02:49:28.661Z,3.90
2019-02-15T02:51:55.933Z,5.27
2019-02-15T02:54:23.447Z,4.90
2019-02-15T02:56:50.722Z,6.80
2019-02-15T02:59:17.974Z,5.07
2019-02-15T03:01:45.220Z,3.90
2019-02-15T03:04:12.833Z,4.97
2019-02-15T03:06:40.384Z,5.00
2019-02-15T03:09:09.372Z,6.37
2019-02-15T03:11:36.613Z,3.17
2019-02-15T03:14:11.572Z,4.43
2019-02-15T03:16:32.914Z,5.13
2019-02-15T03:19:00.207Z,6.10
2019-02-15T03:21:27.454Z,5.63
2019-02-15T03:23:54.955Z,4.23
2019-02-15T03:26:22.235Z,5.50
2019-02-15T03:28:49.484Z,4.53
2019-02-15T03:31:16.751Z,6.33
2019-02-15T03:33:44.018Z,9.03
2019-02-15T03:36:12.937Z,6.47
2019-02-15T03:38:44.550Z,5.70
2019-02-15T03:41:28.139Z,4.10
2019-02-15T03:43:55.409Z,6.57
2019-02-15T03:46:22.964Z,4.80
2019-02-15T03:48:50.227Z,4.90
2019-02-15T03:51:17.498Z,5.20
2019-02-15T03:53:44.763Z,7.57
2019-02-15T03:56:12.034Z,5.83
2019-02-15T03:58:39.376Z,7.20
2019-02-15T04:01:06.619Z,5.77
2019-02-15T04:03:33.895Z,5.43
2019-02-15T04:06:01.158Z,6.80
2019-02-15T04:08:28.678Z,7.00
2019-02-15T04:10:56.212Z,6.00
2019-02-15T04:13:23.485Z,8.20
2019-02-15T04:15:50.714Z,8.13
2019-02-15T04:18:17.982Z,5.43
2019-02-15T04:20:45.510Z,6.33
2019-02-15T04:23:12.783Z,8.10
2019-02-15T04:25:40.031Z,7.80
2019-02-15T04:28:07.302Z,6.50
2019-02-15T04:30:34.555Z,8.43
2019-02-15T04:33:01.821Z,5.27
2019-02-15T04:35:29.094Z,6.97
2019-02-15T04:37:56.415Z,6.20
2019-02-15T04:40:23.690Z,6.10
2019-02-15T04:42:50.966Z,6.83
2019-02-15T04:45:18.212Z,6.23
2019-02-15T04:47:45.565Z,9.33
2019-02-15T04:50:12.827Z,6.93
2019-02-15T04:52:40.324Z,8.73
2019-02-15T04:55:07.671Z,7.10
2019-02-15T04:57:34.984Z,8.03
2019-02-15T05:00:02.490Z,8.20
2019-02-15T05:02:29.758Z,7.33
2019-02-15T05:04:57.034Z,9.80
2019-02-15T05:07:24.539Z,7.77
2019-02-15T05:09:51.883Z,8.83
2019-02-15T05:12:19.408Z,8.23
2019-02-15T05:14:53.072Z,8.07
2019-02-15T05:17:15.654Z,19.63
2019-02-15T05:19:42.930Z,9.37
2019-02-15T05:22:10.183Z,10.27
2019-02-15T05:24:37.706Z,8.50
2019-02-15T05:27:05.000Z,11.93
2019-02-15T05:29:32.254Z,8.40
2019-02-15T05:31:59.758Z,8.50
2019-02-15T05:34:27.035Z,10.57
2019-02-15T05:36:54.396Z,9.40
2019-02-15T05:39:21.753Z,7.83
2019-02-15T05:41:49.057Z,13.27
2019-02-15T05:44:16.436Z,10.53
2019-02-15T05:46:43.758Z,17.33
2019-02-15T05:49:11.059Z,10.63
2019-02-15T05:51:38.308Z,10.00
2019-02-15T05:54:05.817Z,15.77
2019-02-15T05:56:33.097Z,9.33
2019-02-15T05:59:00.582Z,11.97
2019-02-15T06:01:28.034Z,10.70
2019-02-15T06:03:55.310Z,11.67
2019-02-15T06:06:22.590Z,10.23
2019-02-15T06:08:49.868Z,11.60
2019-02-15T06:11:17.144Z,11.07
2019-02-15T06:13:44.414Z,10.07
2019-02-15T06:16:11.668Z,11.40
2019-02-15T06:18:38.999Z,13.40
2019-02-15T06:21:06.269Z,10.80
2019-02-15T06:23:33.840Z,13.07
2019-02-15T06:26:01.101Z,13.67
2019-02-15T06:28:28.334Z,13.77
2019-02-15T06:30:55.701Z,12.37
2019-02-15T06:33:23.044Z,11.20
2019-02-15T06:35:50.307Z,12.60
2019-02-15T06:38:17.663Z,13.87
2019-02-15T06:40:48.070Z,13.43
2019-02-15T06:43:15.565Z,13.33
2019-02-15T06:45:42.847Z,16.10
2019-02-15T06:48:10.606Z,12.10
2019-02-15T06:50:37.963Z,13.47
2019-02-15T06:53:05.211Z,10.23
2019-02-15T06:55:32.491Z,12.33
2019-02-15T06:57:59.728Z,10.73
2019-02-15T07:00:45.074Z,12.50
2019-02-15T07:03:22.966Z,13.90
2019-02-15T07:05:50.240Z,10.30
2019-02-15T07:08:17.513Z,11.77
2019-02-15T07:10:44.764Z,11.43
2019-02-15T07:13:12.301Z,13.47
2019-02-15T07:15:39.550Z,12.07
2019-02-15T07:18:06.825Z,12.27
2019-02-15T07:20:34.102Z,13.70
2019-02-15T07:23:03.034Z,16.23
2019-02-15T07:25:30.278Z,12.50
2019-02-15T07:27:57.549Z,13.17
2019-02-15T07:30:24.805Z,11.33
2019-02-15T07:32:52.074Z,13.47
2019-02-15T07:35:19.584Z,15.10
2019-02-15T07:37:47.343Z,12.03
2019-02-15T07:40:14.793Z,10.67
2019-02-15T07:42:42.101Z,11.60
2019-02-15T07:45:10.222Z,13.97
2019-02-15T07:47:37.495Z,23.60
2019-02-15T07:50:08.777Z,12.53
2019-02-15T07:52:36.057Z,10.47
2019-02-15T07:55:04.006Z,13.90
2019-02-15T07:57:31.278Z,14.20
2019-02-15T08:00:00.507Z,12.00
2019-02-15T08:02:27.774Z,14.10
2019-02-15T08:04:55.262Z,15.37
2019-02-15T08:07:22.629Z,12.67
2019-02-15T08:09:49.876Z,9.00
2019-02-15T08:12:17.114Z,12.60
2019-02-15T08:14:44.394Z,12.57
2019-02-15T08:17:11.671Z,10.00
2019-02-15T08:19:39.176Z,13.30
2019-02-15T08:22:06.449Z,10.70
2019-02-15T08:24:33.721Z,10.40
2019-02-15T08:27:01.244Z,11.50
2019-02-15T08:29:28.494Z,10.00
2019-02-15T08:31:56.021Z,10.47
2019-02-15T08:34:23.342Z,9.77
2019-02-15T08:36:50.596Z,10.53
2019-02-15T08:39:18.131Z,10.03
2019-02-15T08:42:00.268Z,11.50
2019-02-15T08:44:14.452Z,10.43
2019-02-15T08:46:41.725Z,10.60
2019-02-15T08:49:08.971Z,8.37
2019-02-15T08:51:36.249Z,10.40
2019-02-15T08:54:03.565Z,12.93
2019-02-15T08:56:30.842Z,12.20
2019-02-15T08:58:58.087Z,10.40
2019-02-15T09:01:25.366Z,9.57
2019-02-15T09:03:52.613Z,9.40
2019-02-15T09:06:19.862Z,11.50
2019-02-15T09:08:47.135Z,7.70
2019-02-15T09:11:14.624Z,12.17
2019-02-15T09:13:42.159Z,9.77
2019-02-15T09:16:10.562Z,9.23
2019-02-15T09:18:37.942Z,9.10
2019-02-15T09:21:05.239Z,22.80
2019-02-15T09:23:32.478Z,7.27
2019-02-15T09:25:59.722Z,9.37
2019-02-15T09:28:29.150Z,7.23
2019-02-15T09:30:56.557Z,10.03
2019-02-15T09:33:23.832Z,8.70
2019-02-15T09:35:51.095Z,9.37
2019-02-15T09:38:18.373Z,9.70
2019-02-15T09:40:45.641Z,17.43
2019-02-15T09:43:13.166Z,12.47
2019-02-15T09:45:40.700Z,8.27
2019-02-15T09:48:08.546Z,10.90
2019-02-15T09:50:35.822Z,11.07
2019-02-15T09:53:03.071Z,11.97
2019-02-15T09:55:30.358Z,13.60
2019-02-15T09:57:57.631Z,9.57
2019-02-15T10:00:24.911Z,11.67
2019-02-15T10:02:52.158Z,11.03
2019-02-15T10:05:19.430Z,12.47
2019-02-15T10:07:46.679Z,10.90
2019-02-15T10:10:13.950Z,9.93
2019-02-15T10:12:41.288Z,10.03
2019-02-15T10:15:10.001Z,12.93
2019-02-15T10:17:37.494Z,9.07
2019-02-15T10:20:05.415Z,10.37
2019-02-15T10:22:32.690Z,12.87
2019-02-15T10:24:59.969Z,10.20
2019-02-15T10:27:27.210Z,10.47
2019-02-15T10:29:54.525Z,9.80
2019-02-15T10:32:21.809Z,10.33
2019-02-15T10:34:49.059Z,16.63
2019-02-15T10:37:16.341Z,13.23
2019-02-15T10:39:43.582Z,8.33
2019-02-15T10:42:10.882Z,10.90
2019-02-15T10:44:38.130Z,14.07
2019-02-15T10:47:13.637Z,12.30
2019-02-15T10:49:34.441Z,10.17
2019-02-15T10:52:01.687Z,9.00
2019-02-15T10:54:28.966Z,10.70
2019-02-15T10:56:56.206Z,8.93
2019-02-15T10:59:23.481Z,14.27
2019-02-15T11:01:50.762Z,14.90
2019-02-15T11:04:18.011Z,8.93
2019-02-15T11:06:45.344Z,8.80
2019-02-15T11:09:12.611Z,7.33
2019-02-15T11:11:40.144Z,8.97
2019-02-15T11:14:07.419Z,9.63
2019-02-15T11:16:34.698Z,8.73
2019-02-15T11:19:02.250Z,13.40
2019-02-15T11:21:29.510Z,6.70
2019-02-15T11:23:56.755Z,8.10
2019-02-15T11:26:24.971Z,9.07
2019-02-15T11:28:52.365Z,7.93
2019-02-15T11:31:19.643Z,9.40
2019-02-15T11:33:47.138Z,17.23
2019-02-15T11:36:14.410Z,7.20
2019-02-15T11:38:41.649Z,6.50
2019-02-15T11:41:11.158Z,6.10
2019-02-15T11:43:38.134Z,6.67
2019-02-15T11:46:05.408Z,7.50
2019-02-15T11:48:32.673Z,5.30
2019-02-15T11:50:59.916Z,7.30
2019-02-15T11:53:27.437Z,8.67
2019-02-15T11:55:54.718Z,7.50
2019-02-15T11:58:22.044Z,5.30
2019-02-15T12:00:49.287Z,5.20
2019-02-15T12:03:16.558Z,5.57
2019-02-15T12:05:43.828Z,4.87
2019-02-15T12:08:11.117Z,5.10
2019-02-15T12:10:38.382Z,6.83
2019-02-15T12:13:05.674Z,2.87
2019-02-15T12:15:32.950Z,3.33
2019-02-15T12:18:00.219Z,3.70
2019-02-15T12:20:27.461Z,2.03
2019-02-15T12:22:54.739Z,1.73
2019-02-15T12:25:21.981Z,2.87
2019-02-15T12:27:49.252Z,2.07
2019-02-15T12:30:16.531Z,1.40
2019-02-15T12:32:44.030Z,1.90
2019-02-15T12:35:11.305Z,1.20
2019-02-15T12:37:38.645Z,1.23
2019-02-15T12:40:06.663Z,5.87
2019-02-15T12:42:33.930Z,1.50
2019-02-15T12:45:01.173Z,0.97
2019-02-15T12:47:28.449Z,1.03
2019-02-15T12:49:55.882Z,1.40
2019-02-15T12:52:23.141Z,1.83
2019-02-15T12:54:50.402Z,1.30
2019-02-15T12:57:17.679Z,1.30
2019-02-15T12:59:45.190Z,1.70
2019-02-15T13:02:12.893Z,1.80
2019-02-15T13:04:41.981Z,2.40
2019-02-15T13:07:09.716Z,2.57
2019-02-15T13:09:37.265Z,6.70
2019-02-15T13:12:07.341Z,2.47
2019-02-15T13:14:35.119Z,3.53
2019-02-15T13:17:02.394Z,1.70
2019-02-15T13:19:29.903Z,1.50
2019-02-15T13:21:57.174Z,1.80
2019-02-15T13:24:24.450Z,2.50
2019-02-15T13:26:51.726Z,1.53
2019-02-15T13:29:18.970Z,1.77
2019-02-15T13:31:46.245Z,1.30
2019-02-15T13:34:13.487Z,2.97
2019-02-15T13:36:40.766Z,1.80
2019-02-15T13:39:09.839Z,1.80
2019-02-15T13:41:37.273Z,2.80
2019-02-15T13:44:04.934Z,8.60
2019-02-15T13:46:33.327Z,2.73
2019-02-15T13:49:00.769Z,4.43
2019-02-15T13:51:28.565Z,1.20
2019-02-15T13:53:55.951Z,2.17
2019-02-15T13:56:23.225Z,1.90
2019-02-15T13:58:50.702Z,1.37
2019-02-15T14:01:18.085Z,1.60
2019-02-15T14:03:45.511Z,2.07
2019-02-15T14:06:13.063Z,1.67
2019-02-15T14:08:40.329Z,1.40
2019-02-15T14:11:07.834Z,3.50
2019-02-15T14:13:35.451Z,2.87
2019-02-15T14:16:03.018Z,1.50
2019-02-15T14:18:30.255Z,2.17
2019-02-15T14:20:57.506Z,1.10
2019-02-15T14:23:24.793Z,1.83
2019-02-15T14:25:52.318Z,2.07
2019-02-15T14:28:19.562Z,2.50
2019-02-15T14:30:46.906Z,1.83
2019-02-15T14:33:14.150Z,1.20
2019-02-15T14:35:41.421Z,0.90
2019-02-15T14:38:08.719Z,3.47
2019-02-15T14:40:36.026Z,2.13
2019-02-15T14:43:03.273Z,2.60
2019-02-15T14:45:30.538Z,1.07
2019-02-15T14:47:57.782Z,1.20
2019-02-15T14:50:25.047Z,2.57
2019-02-15T14:52:52.330Z,2.70
2019-02-15T14:55:19.636Z,5.07
2019-02-15T14:57:47.072Z,3.60
2019-02-15T15:00:15.101Z,2.50
2019-02-15T15:02:42.611Z,4.00
2019-02-15T15:05:10.309Z,8.17
2019-02-15T15:07:38.451Z,19.27
2019-02-15T15:10:06.970Z,11.73
2019-02-15T15:12:34.246Z,16.17
2019-02-15T15:15:01.573Z,7.07
2019-02-15T15:17:29.094Z,12.53
2019-02-15T15:19:56.373Z,9.77
2019-02-15T15:22:23.629Z,22.90
2019-02-15T15:24:50.910Z,29.73
2019-02-15T15:27:18.166Z,15.23
2019-02-15T15:29:45.526Z,11.27
2019-02-15T15:32:12.778Z,19.00
2019-02-15T15:34:40.050Z,7.47
2019-02-15T15:37:15.978Z,12.60
2019-02-15T15:39:36.289Z,12.20
2019-02-15T15:42:03.813Z,28.53
2019-02-15T15:44:31.085Z,15.80
2019-02-15T15:46:58.361Z,14.10
2019-02-15T15:49:25.646Z,5.97
2019-02-15T15:51:52.907Z,19.83
2019-02-15T15:54:20.182Z,29.23
2019-02-15T15:56:47.459Z,37.90
2019-02-15T15:59:14.753Z,23.47
2019-02-15T16:01:42.277Z,8.27
2019-02-15T16:04:09.998Z,8.83
2019-02-15T16:06:37.270Z,8.80
2019-02-15T16:09:05.516Z,7.87
2019-02-15T16:11:33.320Z,12.83
2019-02-15T16:14:00.666Z,7.33
2019-02-15T16:16:27.938Z,5.77
2019-02-15T16:18:55.185Z,16.60
2019-02-15T16:21:22.454Z,8.60
2019-02-15T16:23:50.580Z,9.83
2019-02-15T16:26:18.118Z,14.00
2019-02-15T16:28:45.390Z,8.97
2019-02-15T16:31:12.917Z,9.30
2019-02-15T16:33:40.458Z,11.40
2019-02-15T16:36:07.701Z,5.57
2019-02-15T16:38:34.973Z,13.60
2019-02-15T16:41:02.495Z,5.10
2019-02-15T16:43:30.278Z,6.10
2019-02-15T16:45:57.801Z,7.23
2019-02-15T16:48:25.353Z,6.77
2019-02-15T16:50:52.594Z,9.07
2019-02-15T16:53:19.938Z,5.50
2019-02-15T16:55:47.199Z,4.33
2019-02-15T16:58:14.448Z,8.90
2019-02-15T17:00:41.790Z,6.00
2019-02-15T17:03:09.289Z,5.50
2019-02-15T17:05:36.558Z,5.80
2019-02-15T17:08:03.870Z,5.50
2019-02-15T17:10:31.141Z,7.43
2019-02-15T17:12:58.421Z,7.33
2019-02-15T17:15:25.934Z,5.30
2019-02-15T17:17:53.206Z,3.43
2019-02-15T17:20:20.446Z,5.40
2019-02-15T17:22:47.727Z,5.80
2019-02-15T17:25:14.970Z,9.07
2019-02-15T17:27:42.237Z,5.73
2019-02-15T17:30:10.182Z,21.20
2019-02-15T17:32:37.430Z,23.37
2019-02-15T17:35:05.869Z,11.00
2019-02-15T17:37:33.161Z,8.30
2019-02-15T17:40:00.562Z,8.57
2019-02-15T17:42:27.838Z,9.70
2019-02-15T17:44:55.345Z,7.17
2019-02-15T17:47:22.625Z,9.27
2019-02-15T17:49:49.870Z,7.27
2019-02-15T17:52:17.113Z,7.27
2019-02-15T17:54:44.383Z,9.77
2019-02-15T17:57:11.912Z,7.90
2019-02-15T17:59:39.181Z,7.03
2019-02-15T18:02:08.089Z,8.40
2019-02-15T18:04:35.334Z,11.77
2019-02-15T18:07:02.613Z,13.87
2019-02-15T18:09:29.889Z,12.47
2019-02-15T18:11:57.132Z,11.50
2019-02-15T18:14:24.671Z,13.40
2019-02-15T18:16:51.914Z,13.30
2019-02-15T18:19:19.202Z,14.90
2019-02-15T18:21:46.706Z,12.47
2019-02-15T18:24:14.227Z,11.60
2019-02-15T18:26:41.482Z,12.13
2019-02-15T18:29:08.829Z,14.40
2019-02-15T18:31:36.072Z,14.97
2019-02-15T18:34:03.349Z,13.83
2019-02-15T18:36:30.606Z,17.80
2019-02-15T18:38:57.883Z,17.37
2019-02-15T18:41:25.162Z,17.13
2019-02-15T18:43:52.405Z,14.73
2019-02-15T18:46:19.688Z,13.70
2019-02-15T18:48:47.052Z,13.27
2019-02-15T18:51:14.395Z,15.80
2019-02-15T18:53:41.642Z,9.60
2019-02-15T18:56:08.905Z,14.33
2019-02-15T18:58:36.265Z,13.77
2019-02-15T19:01:03.762Z,13.20
2019-02-15T19:03:31.042Z,12.03
2019-02-15T19:05:58.291Z,16.90
2019-02-15T19:08:25.577Z,13.77
2019-02-15T19:10:53.098Z,18.30
2019-02-15T19:13:20.390Z,18.03
2019-02-15T19:15:47.712Z,11.20
2019-02-15T19:18:14.972Z,37.20
2019-02-15T19:20:42.523Z,18.60
2019-02-15T19:23:09.774Z,30.37
2019-02-15T19:25:37.055Z,19.10
2019-02-15T19:28:04.311Z,21.20
2019-02-15T19:30:33.198Z,14.90
2019-02-15T19:33:00.445Z,25.70
2019-02-15T19:35:28.004Z,13.93
2019-02-15T19:37:55.260Z,14.93
2019-02-15T19:40:22.515Z,14.83
2019-02-15T19:42:51.172Z,18.27
2019-02-15T19:45:18.415Z,12.80
2019-02-15T19:47:45.959Z,14.80
2019-02-15T19:50:14.387Z,17.60
2019-02-15T19:52:41.743Z,16.33
2019-02-15T19:55:09.768Z,25.97
2019-02-15T19:57:37.197Z,20.73
2019-02-15T20:00:05.988Z,21.60
2019-02-15T20:02:33.263Z,14.27
2019-02-15T20:05:00.594Z,16.50
2019-02-15T20:07:28.190Z,15.13
2019-02-15T20:09:56.522Z,15.67
2019-02-15T20:12:23.856Z,27.07
2019-02-15T20:14:51.397Z,17.60
2019-02-15T20:17:18.722Z,23.50
2019-02-15T20:19:49.507Z,15.93
2019-02-15T20:22:16.518Z,15.70
2019-02-15T20:24:43.809Z,16.83
2019-02-15T20:27:11.129Z,17.10
2019-02-15T20:29:38.462Z,15.83
2019-02-15T20:32:05.818Z,12.70
2019-02-15T20:34:33.362Z,24.03
2019-02-15T20:37:00.649Z,14.20
2019-02-15T20:39:28.178Z,32.30
2019-02-15T20:41:55.436Z,21.03
2019-02-15T20:44:22.709Z,24.00
2019-02-15T20:46:49.970Z,18.10
2019-02-15T20:49:17.250Z,22.47
2019-02-15T20:51:44.530Z,17.87
2019-02-15T20:54:11.782Z,24.77
2019-02-15T20:56:39.331Z,23.87
2019-02-15T20:59:06.937Z,21.40
2019-02-15T21:01:34.500Z,15.90
2019-02-15T21:04:01.942Z,22.70
2019-02-15T21:06:29.286Z,16.60
2019-02-15T21:08:56.578Z,21.30
2019-02-15T21:11:23.829Z,19.37
2019-02-15T21:13:51.074Z,15.03
2019-02-15T21:16:19.226Z,17.73
2019-02-15T21:18:46.598Z,34.23
2019-02-15T21:21:13.858Z,38.27
2019-02-15T21:23:41.130Z,29.20
2019-02-15T21:26:08.405Z,32.10
2019-02-15T21:28:35.847Z,29.87
2019-02-15T21:31:03.246Z,30.97
2019-02-15T21:33:30.791Z,22.03
2019-02-15T21:35:58.117Z,20.23
2019-02-15T21:38:25.375Z,22.70
2019-02-15T21:40:52.699Z,19.17
2019-02-15T21:43:20.279Z,19.00
2019-02-15T21:45:47.536Z,15.97
2019-02-15T21:48:14.881Z,15.17
2019-02-15T21:50:42.136Z,16.23
2019-02-15T21:53:09.469Z,21.40
2019-02-15T21:55:36.730Z,15.10
2019-02-15T21:58:04.082Z,15.30
2019-02-15T22:00:31.357Z,11.47
2019-02-15T22:02:58.604Z,12.03
2019-02-15T22:05:25.876Z,10.60
2019-02-15T22:07:53.145Z,9.00
2019-02-15T22:10:20.393Z,11.50
2019-02-15T22:12:47.937Z,9.70
2019-02-15T22:15:15.951Z,7.83
2019-02-15T22:17:43.193Z,12.83
2019-02-15T22:20:14.057Z,14.60
2019-02-15T22:22:41.299Z,17.80
2019-02-15T22:25:08.578Z,11.40
2019-02-15T22:27:35.880Z,12.67
2019-02-15T22:30:04.913Z,10.20
2019-02-15T22:32:32.235Z,11.37
2019-02-15T22:34:59.486Z,11.50
2019-02-15T22:37:26.762Z,15.07
2019-02-15T22:39:54.086Z,10.37
2019-02-15T22:42:21.361Z,11.63
2019-02-15T22:44:48.644Z,13.17
2019-02-15T22:47:15.905Z,9.60
2019-02-15T22:49:43.643Z,11.80
2019-02-15T22:52:11.025Z,12.10
2019-02-15T22:54:38.338Z,10.67
2019-02-15T22:57:05.615Z,10.00
2019-02-15T22:59:32.867Z,11.23
2019-02-15T23:02:00.214Z,11.07
2019-02-15T23:04:27.498Z,10.10
2019-02-15T23:06:54.744Z,11.30
2019-02-15T23:09:25.257Z,13.63
2019-02-15T23:11:52.510Z,11.63
2019-02-15T23:14:19.785Z,13.47
2019-02-15T23:16:47.211Z,13.93
2019-02-15T23:19:14.784Z,12.80
2019-02-15T23:21:42.026Z,19.00
2019-02-15T23:24:09.274Z,11.30
2019-02-15T23:26:36.541Z,9.93
2019-02-15T23:29:03.790Z,11.53
2019-02-15T23:31:31.073Z,12.47
2019-02-15T23:33:58.345Z,12.53
2019-02-15T23:36:25.593Z,12.90
2019-02-15T23:38:53.138Z,12.17
2019-02-15T23:41:20.390Z,13.27
2019-02-15T23:43:47.889Z,12.23
2019-02-15T23:46:15.161Z,15.00
2019-02-15T23:48:42.480Z,12.10
2019-02-15T23:51:09.747Z,11.93
2019-02-15T23:53:37.019Z,9.83
2019-02-15T23:56:04.266Z,8.50
2019-02-15T23:58:31.533Z,9.97
